Latest Weather Observations for Wilcannia Airport

IDN60801

Issued at 5:53 pm EST Sunday 11 April 2021 (issued every 10 minutes, with the page automatically refreshed every 10 minutes)

About weather observations | Map of weather stations | Latest weather observations for NSW | Other Formats
Station Details ID: 046012 Name: WILCANNIA AERODROME AWS Lat: -31.52 Lon: 143.38 Height: 94.3 m
Data from the previous 72 hours. | See also: Recent months at Wilcannia Airport
Date/Time
EST
Temp
°C
App
Temp
°C
Dew
Point
°C
Rel
Hum
%
Delta-T
°C
Wind Press
QNH
hPa
Press
MSL
hPa
Rain since
9am
mm
Dir  Spd
km/h
Gust
km/h
Spd
kts
Gust
kts
11/05:30pm 18.3 12.4 -1.0 27 8.3 S 20 28 11 15 1019.9 1019.7 0.0
11/05:00pm 18.9 13.0 -0.5 27 8.4 SSW 20 32 11 17 1019.8 1019.6 0.0
11/04:30pm 19.2 13.4 -0.2 27 8.5 SSW 20 33 11 18 1019.7 1019.5 0.0
11/04:00pm 19.3 12.7 -0.1 27 8.5 S 24 37 13 20 1019.7 1019.5 0.0
11/03:30pm 19.4 12.5 -0.1 27 8.6 S 26 39 14 21 1019.6 1019.4 0.0
11/03:00pm 19.5 13.0 0.0 27 8.6 SSW 24 41 13 22 1019.6 1019.4 0.0
11/02:30pm 19.2 11.9 0.3 28 8.4 S 28 39 15 21 1019.6 1019.4 0.0
11/02:00pm 19.6 12.4 0.6 28 8.5 SSW 28 37 15 20 1019.9 1019.7 0.0
11/01:30pm 18.8 11.3 0.9 30 8.0 S 30 41 16 22 1020.2 1020.0 0.0
11/01:00pm 18.2 11.2 1.7 33 7.4 SSW 28 43 15 23 1020.4 1020.2 0.0
11/12:30pm 17.9 10.8 1.4 33 7.4 S 28 44 15 24 1020.7 1020.5 0.0
11/12:12pm 17.8 10.8 1.7 34 7.3 SSW 28 46 15 25 1020.8 1020.6 0.0
11/12:00pm 17.2 10.1 1.6 35 7.0 S 28 39 15 21 1021.1 1020.9 0.0
11/11:52am 17.5 10.6 2.7 37 6.8 SSW 28 46 15 25 1021.2 1021.0 0.0
11/11:30am 16.7 9.0 2.3 38 6.5 SSW 32 48 17 26 1021.2 1021.0 0.0
11/11:03am 17.1 10.2 2.7 38 6.6 S 28 46 15 25 1021.3 1021.1 0.0
11/11:00am 17.0 9.9 3.3 40 6.3 S 30 44 16 24 1021.3 1021.1 0.0
11/10:34am 16.2 9.4 2.9 41 6.1 S 28 46 15 25 1021.5 1021.3 0.0
11/10:30am 16.0 8.9 3.4 43 5.8 S 30 41 16 22 1021.6 1021.4 0.0
11/10:10am 15.7 8.0 3.2 43 5.7 S 33 52 18 28 1021.8 1021.6 0.0
11/10:00am 15.4 7.8 2.9 43 5.6 SSW 32 48 17 26 1021.8 1021.6 0.0
11/09:56am 15.9 8.8 3.4 43 5.7 SSW 30 48 16 26 1021.8 1021.6 0.0
11/09:30am 15.0 7.6 3.8 47 5.2 S 32 48 17 26 1021.7 1021.5 0.0
11/09:00am 14.8 8.8 5.1 52 4.6 SSW 26 39 14 21 1021.6 1021.4 0.0
11/08:30am 13.9 8.3 5.5 57 4.0 SSW 24 32 13 17 1021.2 1021.0 0.0
11/08:00am 12.5 7.6 5.0 60 3.5 SSW 20 28 11 15 1020.7 1020.5 0.0
11/07:30am 10.8 7.1 4.3 64 2.9 SSW 13 17 7 9 1020.1 1019.9 0.0
11/07:00am 9.2 5.0 3.6 68 2.4 SSW 15 19 8 10 1020.0 1019.8 0.0
11/06:30am 8.7 4.6 2.5 65 2.6 SW 13 15 7 8 1019.6 1019.4 0.0
11/06:00am 9.2 5.5 2.5 63 2.8 SW 11 13 6 7 1019.0 1018.8 0.0
11/05:30am 10.1 6.4 2.2 58 3.4 SW 11 13 6 7 1018.6 1018.4 0.0
11/05:00am 11.3 7.3 2.6 55 3.8 SW 13 19 7 10 1018.3 1018.1 0.0
11/04:30am 12.1 7.2 2.3 51 4.3 SSW 17 20 9 11 1017.8 1017.5 0.0
11/04:00am 12.7 7.5 2.3 49 4.5 SSW 19 24 10 13 1017.6 1017.3 0.0
11/03:30am 13.2 7.0 2.1 47 4.8 SSW 24 33 13 18 1017.2 1016.9 0.0
11/03:00am 13.6 8.2 2.2 46 5.0 SSW 20 28 11 15 1017.0 1016.7 0.0
11/02:30am 14.4 7.9 2.6 45 5.3 SSW 26 37 14 20 1016.9 1016.6 0.0
11/02:00am 14.8 9.0 4.2 49 4.9 SSW 24 39 13 21 1016.7 1016.4 0.0
11/01:30am 15.3 10.2 5.8 53 4.6 SW 22 33 12 18 1016.6 1016.3 0.0
11/01:00am 15.5 10.8 6.0 53 4.6 SSW 20 28 11 15 1016.3 1016.0 0.0
11/12:30am 15.3 11.8 7.1 58 4.1 SSW 15 20 8 11 1016.0 1015.7 0.0
11/12:00am 13.3 9.9 5.7 60 3.6 SW 13 15 7 8 1015.8 1015.5 0.0
 
Date/Time
EST
Temp
°C
App
Temp
°C
Dew
Point
°C
Rel
Hum
%
Delta-T
°C
Wind Press
QNH
hPa
Press
MSL
hPa
Rain since
9am
mm
Dir  Spd
km/h
Gust
km/h
Spd
kts
Gust
kts
10/11:30pm 14.3 10.9 5.9 57 4.0 SW 13 15 7 8 1015.6 1015.3 0.0
10/11:00pm 14.3 10.9 5.9 57 4.0 WSW 13 17 7 9 1015.4 1015.1 0.0
10/10:30pm 14.0 11.4 5.9 58 3.9 WSW 9 11 5 6 1015.1 1014.8 0.0
10/10:00pm 13.6 11.1 4.7 55 4.1 WSW 7 9 4 5 1015.0 1014.7 0.0
10/09:30pm 15.0 12.6 5.2 52 4.6 SW 7 9 4 5 1014.9 1014.6 0.0
10/09:00pm 16.8 14.1 5.7 48 5.4 SW 9 11 5 6 1014.7 1014.4 0.0
10/08:30pm 18.5 15.1 6.0 44 6.2 SW 13 20 7 11 1014.5 1014.2 0.0
10/08:00pm 19.3 15.2 6.4 43 6.5 SSW 17 22 9 12 1014.3 1014.0 0.0
10/07:30pm 19.0 15.0 6.5 44 6.3 SSW 17 20 9 11 1014.1 1013.8 0.0
10/07:00pm 18.4 13.8 6.3 45 6.0 SSW 20 26 11 14 1013.8 1013.5 0.0
10/06:30pm 19.0 13.9 6.2 43 6.4 SW 22 35 12 19 1013.5 1013.2 0.0
10/06:00pm 19.7 14.2 6.1 41 6.8 SSW 24 32 13 17 1013.1 1012.8 0.0
10/05:30pm 20.9 15.4 6.1 38 7.5 SSW 24 33 13 18 1012.7 1012.5 0.0
10/05:00pm 21.5 15.1 5.4 35 8.0 SSW 28 54 15 29 1012.4 1012.2 0.0
10/04:53pm 21.6 15.3 5.5 35 8.1 SW 28 54 15 29 1012.3 1012.1 0.0
10/04:30pm 21.6 15.2 5.1 34 8.2 SW 28 37 15 20 1012.2 1012.0 0.0
10/04:00pm 22.1 16.4 5.1 33 8.5 SSW 24 35 13 19 1012.2 1012.0 0.0
10/03:30pm 22.4 17.5 4.9 32 8.7 SW 20 32 11 17 1012.3 1012.1 0.0
10/03:00pm 22.1 16.4 5.1 33 8.5 SSW 24 37 13 20 1012.3 1012.1 0.0
10/02:30pm 22.2 16.0 4.3 31 8.8 SSW 26 43 14 23 1012.3 1012.1 0.0
10/02:00pm 22.2 16.9 5.2 33 8.5 SW 22 32 12 17 1012.4 1012.2 0.0
10/01:30pm 21.4 16.2 5.3 35 8.0 SW 22 37 12 20 1012.9 1012.6 0.0
10/01:00pm 21.1 15.8 5.1 35 7.9 SW 22 32 12 17 1013.1 1012.8 0.0
10/12:30pm 21.0 14.9 5.0 35 7.9 SW 26 37 14 20 1013.4 1013.1 0.0
10/12:00pm 21.0 15.8 5.4 36 7.8 SW 22 33 12 18 1013.6 1013.3 0.0
10/11:30am 20.3 14.3 5.1 37 7.5 SSW 26 35 14 19 1013.8 1013.5 0.0
10/11:00am 20.3 14.0 5.5 38 7.3 SSW 28 35 15 19 1014.2 1013.9 0.0
10/10:30am 19.6 13.6 5.3 39 7.0 SSW 26 39 14 21 1014.2 1013.9 0.0
10/10:00am 18.9 12.5 5.4 41 6.6 SSW 28 37 15 20 1014.4 1014.1 0.0
10/09:30am 18.4 12.8 5.6 43 6.3 S 24 32 13 17 1014.3 1014.0 0.0
10/09:00am 17.7 13.7 6.6 48 5.5 S 17 24 9 13 1014.2 1013.9 0.0
10/08:30am 16.4 12.7 6.5 52 4.9 S 15 24 8 13 1013.9 1013.6 0.0
10/08:00am 15.4 10.3 6.2 54 4.5 SSW 22 30 12 16 1013.5 1013.2 0.0
10/07:30am 14.8 10.7 6.1 56 4.2 SSW 17 24 9 13 1013.2 1012.9 0.0
10/07:00am 14.3 9.5 5.7 56 4.1 SSW 20 28 11 15 1012.4 1012.2 0.0
10/06:30am 14.9 9.6 5.1 52 4.6 SSW 22 32 12 17 1011.8 1011.6 0.0
10/06:00am 15.4 10.5 5.0 50 4.9 SSW 20 26 11 14 1011.8 1011.6 0.0
10/05:30am 15.9 12.2 6.1 52 4.8 SSW 15 19 8 10 1011.2 1011.0 0.0
10/05:00am 16.1 13.3 6.8 54 4.6 SW 11 13 6 7 1011.0 1010.8 0.0
10/04:30am 16.9 14.4 6.4 50 5.2 SW 9 13 5 7 1010.9 1010.7 0.0
10/04:00am 17.7 14.1 6.6 48 5.5 SW 15 19 8 10 1010.7 1010.5 0.0
10/03:30am 18.1 14.2 7.2 49 5.5 SW 17 20 9 11 1010.6 1010.4 0.0
10/03:00am 18.0 14.9 7.4 50 5.4 SW 13 19 7 10 1010.4 1010.2 0.0
10/02:30am 18.1 15.0 7.2 49 5.5 SSW 13 17 7 9 1010.2 1010.0 0.0
10/02:00am 18.3 14.5 7.4 49 5.5 SSW 17 22 9 12 1010.1 1009.9 0.0
10/01:30am 18.7 14.3 7.5 48 5.7 SSW 20 26 11 14 1010.4 1010.2 0.0
10/01:00am 20.1 16.1 6.5 41 6.9 SSW 17 22 9 12 1010.4 1010.2 0.0
10/12:30am 20.6 16.6 6.5 40 7.1 SSW 17 26 9 14 1011.0 1010.8 0.0
10/12:00am 20.7 16.8 7.3 42 6.9 SSW 17 24 9 13 1010.9 1010.7 0.0
 
Date/Time
EST
Temp
°C
App
Temp
°C
Dew
Point
°C
Rel
Hum
%
Delta-T
°C
Wind Press
QNH
hPa
Press
MSL
hPa
Rain since
9am
mm
Dir  Spd
km/h
Gust
km/h
Spd
kts
Gust
kts
09/11:30pm 21.0 16.9 8.0 43 6.8 S 19 26 10 14 1010.3 1010.1 0.0
09/11:00pm 21.3 17.2 8.6 44 6.7 SW 20 26 11 14 1010.8 1010.6 0.0
09/10:30pm 21.5 17.8 9.4 46 6.5 SSW 19 22 10 12 1010.2 1010.0 0.0
09/10:00pm 21.4 18.6 9.9 48 6.2 SSW 15 20 8 11 1010.2 1010.0 0.0
09/09:30pm 21.6 18.9 10.4 49 6.1 SW 15 19 8 10 1010.4 1010.2 0.0
09/09:00pm 21.7 19.1 10.8 50 6.0 SSW 15 19 8 10 1010.1 1009.9 0.0
09/08:30pm 22.0 19.9 11.1 50 6.1 SSW 13 19 7 10 1009.9 1009.7 0.0
09/08:00pm 22.4 19.9 10.9 48 6.4 SSW 15 19 8 10 1009.7 1009.5 0.0
09/07:30pm 23.0 20.5 11.1 47 6.6 SSW 15 20 8 11 1009.4 1009.2 0.0
09/07:00pm 23.5 21.0 10.9 45 7.0 SSW 15 20 8 11 1009.1 1008.9 0.0
09/06:30pm 23.9 20.9 10.6 43 7.4 SSW 17 22 9 12 1008.6 1008.3 0.0
09/06:00pm 24.8 21.3 10.3 40 8.1 SSW 19 26 10 14 1008.6 1008.3 0.0
09/05:30pm 25.6 21.9 9.4 36 8.9 SSW 19 24 10 13 1008.5 1008.2 0.0
09/05:00pm 26.8 23.0 9.2 33 9.7 SW 19 26 10 14 1008.2 1007.9 0.0
09/04:30pm 26.6 22.6 9.0 33 9.7 S 20 28 11 15 1008.1 1007.8 0.0
09/04:00pm 27.0 23.7 9.4 33 9.8 S 17 24 9 13 1008.0 1007.7 0.0
09/03:30pm 27.5 23.5 8.9 31 10.2 S 20 30 11 16 1008.0 1007.7 0.0
09/03:00pm 27.8 23.2 8.1 29 10.7 SSW 22 30 12 16 1008.0 1007.7 0.0
09/02:30pm 27.8 23.1 7.6 28 10.9 S 22 32 12 17 1008.2 1007.9 0.0
09/02:00pm 28.1 23.4 7.9 28 11.0 SSW 22 30 12 16 1008.5 1008.2 0.0
09/01:30pm 27.4 22.6 7.3 28 10.8 SSW 22 32 12 17 1009.0 1008.7 0.0
09/01:00pm 28.1 22.8 6.8 26 11.4 SSW 24 35 13 19 1009.2 1009.0 0.0
09/12:30pm 27.3 21.6 5.0 24 11.5 SSW 24 33 13 18 1009.5 1009.3 0.0
09/12:00pm 27.2 21.1 3.0 21 12.0 SSW 24 35 13 19 1009.7 1009.5 0.0
09/11:30am 26.4 19.4 1.7 20 11.9 SW 28 39 15 21 1010.1 1009.9 0.0
09/11:00am 27.4 20.2 1.0 18 12.7 SW 28 37 15 20 1010.0 1009.8 0.0
09/10:30am 26.8 21.0 -0.3 17 12.6 SW 20 30 11 16 1009.9 1009.7 0.0
09/10:00am 26.6 21.1 0.4 18 12.4 SW 19 26 10 14 1009.5 1009.3 0.0
09/09:30am 25.3 19.0 1.4 21 11.4 SW 24 33 13 18 1009.9 1009.7 0.0
09/09:00am 22.7 18.3 2.8 27 9.5 W 15 19 8 10 1009.5 1009.3 0.0
09/08:30am 22.5 17.5 1.5 25 9.8 W 17 22 9 12 1009.5 1009.3 0.0
09/08:00am 22.4 17.8 1.4 25 9.8 WNW 15 20 8 11 1008.9 1008.6 0.0
09/07:30am 21.8 17.9 0.9 25 9.6 NW 11 15 6 8 1008.2 1007.9 0.0
09/07:00am 20.4 15.8 1.8 29 8.6 NW 15 17 8 9 1007.9 1007.6 0.0
09/06:30am 19.5 15.0 1.9 31 8.1 NNW 15 17 8 9 1007.7 1007.4 0.0
09/06:00am 18.9 14.4 1.9 32 7.8 NW 15 17 8 9 1007.7 1007.4 0.0
09/05:30am 18.5 14.3 1.9 33 7.6 NW 13 13 7 7 1007.5 1007.2 0.0
09/05:00am 17.4 13.0 2.6 37 6.8 NW 15 15 8 8 1007.5 1007.2 0.0
09/04:30am 16.7 13.4 2.3 38 6.5 WNW 9 11 5 6 1007.7 1007.4 0.0
09/04:00am 17.1 13.8 2.3 37 6.7 NNW 9 11 5 6 1007.6 1007.3 0.0
09/03:30am 17.9 14.6 2.2 35 7.2 NNW 9 11 5 6 1007.6 1007.3 0.0
09/03:00am 17.5 14.1 1.9 35 7.1 N 9 11 5 6 1007.7 1007.4 0.0
09/02:30am 17.9 14.8 3.8 39 6.6 NNW 9 9 5 5 1007.9 1007.6 0.0
09/02:00am 18.9 15.8 1.4 31 7.9 N 7 7 4 4 1008.4 1008.1 0.0
09/01:30am 18.8 16.0 1.8 32 7.7 N 6 9 3 5 1008.5 1008.2 0.0
09/01:00am 19.0 15.2 2.0 32 7.8 NW 11 11 6 6 1008.5 1008.2 0.0
09/12:30am 17.8 14.6 0.5 31 7.6 NNW 7 9 4 5 1008.6 1008.3 0.0
09/12:00am 17.8 14.8 0.5 31 7.6 WNW 6 7 3 4 1008.7 1008.4 0.0
 
Date/Time
EST
Temp
°C
App
Temp
°C
Dew
Point
°C
Rel
Hum
%
Delta-T
°C
Wind Press
QNH
hPa
Press
MSL
hPa
Rain since
9am
mm
Dir  Spd
km/h
Gust
km/h
Spd
kts
Gust
kts
08/11:30pm 17.3 15.0 0.5 32 7.4 W 2 6 1 3 1009.0 1008.7 0.0
08/11:00pm 16.9 14.6 0.1 32 7.3 SW 2 6 1 3 1009.0 1008.7 0.0
08/10:30pm 16.7 13.4 0.4 33 7.1 SW 7 7 4 4 1009.2 1009.0 0.0
08/10:00pm 17.5 14.4 1.1 33 7.3 WSW 7 7 4 4 1009.3 1009.1 0.0
08/09:30pm 18.2 14.6 0.8 31 7.7 W 9 11 5 6 1009.3 1009.1 0.0
08/09:00pm 18.3 15.0 0.4 30 7.9 W 7 9 4 5 1009.1 1008.9 0.0
08/08:30pm 20.4 16.9 1.3 28 8.7 WSW 9 11 5 6 1009.1 1008.9 0.0
08/08:00pm 22.0 17.7 1.1 25 9.7 WSW 13 13 7 7 1009.0 1008.7 0.0
08/07:30pm 23.2 19.3 0.9 23 10.3 WSW 11 13 6 7 1008.6 1008.3 0.0
08/07:00pm 24.8 20.5 1.0 21 11.2 WSW 13 15 7 8 1008.3 1008.0 0.0
08/06:30pm 27.0 22.5 -0.1 17 12.7 WSW 13 15 7 8 1008.0 1007.7 0.0
08/06:00pm 29.8 25.0 0.4 15 14.2 W 15 20 8 11 1007.8 1007.5 0.0

Other formats

Comma delimited format used in spreadsheet applications
http://www.bom.gov.au/fwo/IDN60801/IDN60801.95695.axf

JavaScript Object Notation format (JSON) in row-major order
http://www.bom.gov.au/fwo/IDN60801/IDN60801.95695.json

Data quality

Most of these data are generated automatically and are frequently updated. Quality checks on data are not normally performed. It is possible for incorrect values to appear. Refer to information at About Latest Weather Observations and please check the disclaimer before using these data.